Time;durP1;ratioP1;P1;durP2;ratioP2;P2;SDS_P1;SDS_P2;PMS_P1;PMS_P2;Temp;Humidity;BMP_temperature;BMP_pressure;BME280_temperature;BME280_humidity;BME280_pressure;Samples;Min_cycle;Max_cycle;Signal;HPM_P1;HPM_P2
2022/02/15 00:01:25;;;;;;;;;;;;;;;-2.61;77.58;100131.20;1667143;86;20173;-69
2022/02/15 00:03:55;;;;;;;;;;;;;;;-2.60;77.56;100133.68;1694793;84;21592;-68
2022/02/15 00:06:27;;;;;;;;;;;;;;;-2.59;77.42;100134.50;1669119;85;20144;-68
2022/02/15 00:08:53;;;;;;;;;;;;;;;-2.60;77.42;100133.68;1675114;84;20096;-68
2022/02/15 00:11:25;;;;;;;;;;;;;;;-2.61;77.39;100125.83;1669040;86;20111;-70
2022/02/15 00:13:53;;;;;;;;;;;;;;;-2.63;77.39;100126.05;1653499;86;20128;-68
2022/02/15 00:16:21;;;;;;;;;;;;;;;-2.63;77.44;100123.36;1669102;86;20119;-68
2022/02/15 00:18:49;;;;;;;;;;;;;;;-2.62;77.45;100130.91;1669045;86;20124;-68
2022/02/15 00:21:17;;;;;;;;;;;;;;;-2.68;77.55;100128.04;1668171;85;21137;-69
2022/02/15 00:23:47;;;;;;;;;;;;;;;-2.71;77.62;100124.44;1675076;84;20103;-69
2022/02/15 00:26:18;;;;;;;;;;;;;;;-2.75;77.72;100124.56;1665974;85;20134;-69
2022/02/15 00:28:47;;;;;;;;;;;;;;;-2.81;77.98;100121.39;1669830;84;20099;-71
2022/02/15 00:31:33;;;;;;;;;;;;;;;-2.86;78.20;100121.20;1670600;84;20131;-69
2022/02/15 00:33:55;;;;;;;;;;;;;;;-2.91;78.46;100117.02;1737960;81;21124;-68
2022/02/15 00:36:18;;;;;;;;;;;;;;;-2.95;78.83;100122.52;1676106;85;20166;-68
2022/02/15 00:38:46;;;;;;;;;;;;;;;-2.99;79.10;100118.61;1624850;87;20464;-69
2022/02/15 00:41:17;;;;;;;;;;;;;;;-3.00;79.37;100116.95;1624998;87;20081;-69
2022/02/15 00:43:48;;;;;;;;;;;;;;;-3.02;79.63;100114.48;1650814;87;20113;-70
2022/02/15 00:46:16;;;;;;;;;;;;;;;-3.00;79.83;100112.93;1650888;87;21067;-68
2022/02/15 00:48:45;;;;;;;;;;;;;;;-3.00;79.93;100107.56;1690196;85;20131;-68
2022/02/15 00:51:20;;;;;;;;;;;;;;;-2.98;80.02;100102.80;1650935;85;20192;-68
2022/02/15 00:53:53;;;;;;;;;;;;;;;-2.99;80.09;100099.80;1624405;87;20266;-69
2022/02/15 00:56:19;;;;;;;;;;;;;;;-2.98;80.20;100101.97;1650365;87;20491;-69
2022/02/15 00:58:45;;;;;;;;;;;;;;;-3.00;80.10;100095.47;1656767;85;21049;-69
2022/02/15 01:01:11;;;;;;;;;;;;;;;-3.04;80.29;100089.70;1683129;84;20133;-70
2022/02/15 01:03:55;;;;;;;;;;;;;;;-3.05;80.30;100097.97;1683389;84;20414;-71
2022/02/15 01:06:16;;;;;;;;;;;;;;;-3.08;80.38;100093.03;1705775;84;20106;-69
2022/02/15 01:08:46;;;;;;;;;;;;;;;-3.12;80.56;100089.12;1682616;84;20147;-69
2022/02/15 01:11:20;;;;;;;;;;;;;;;-3.13;80.81;100092.84;1660101;84;20497;-69
2022/02/15 01:13:49;;;;;;;;;;;;;;;-3.14;80.94;100091.19;1684058;84;20163;-71
2022/02/15 01:16:20;;;;;;;;;;;;;;;-3.17;81.17;100091.62;1709290;84;20103;-69
2022/02/15 01:18:47;;;;;;;;;;;;;;;-3.22;81.31;100093.59;1709116;84;20082;-69
2022/02/15 01:21:20;;;;;;;;;;;;;;;-3.27;81.67;100090.73;1710305;84;20102;-69
2022/02/15 01:23:45;;;;;;;;;;;;;;;-3.30;81.87;100093.02;1694626;82;22004;-69
2022/02/15 01:26:13;;;;;;;;;;;;;;;-3.36;82.14;100088.80;1726609;82;20435;-69
2022/02/15 01:28:41;;;;;;;;;;;;;;;-3.39;82.47;100090.56;1683673;85;20097;-71
2022/02/15 01:31:10;;;;;;;;;;;;;;;-3.41;82.78;100092.63;1708346;83;20796;-72
2022/02/15 01:33:41;;;;;;;;;;;;;;;-3.42;82.88;100093.66;1748012;82;20095;-70
2022/02/15 01:36:07;;;;;;;;;;;;;;;-3.45;82.92;100093.27;1750980;82;22025;-69
2022/02/15 01:38:37;;;;;;;;;;;;;;;-3.48;83.24;100091.86;1715483;83;20432;-71
2022/02/15 01:41:09;;;;;;;;;;;;;;;-3.50;83.50;100095.27;1686356;83;20120;-68
2022/02/15 01:43:47;;;;;;;;;;;;;;;-3.52;83.74;100091.97;1675523;84;20122;-69
2022/02/15 01:46:30;;;;;;;;;;;;;;;-3.53;84.02;100095.69;1662017;84;20126;-69
2022/02/15 01:48:47;;;;;;;;;;;;;;;-3.54;84.31;100098.06;1705594;84;22293;-70
2022/02/15 01:51:17;;;;;;;;;;;;;;;-3.54;84.41;100095.90;1710426;84;20098;-69
2022/02/15 01:53:43;;;;;;;;;;;;;;;-3.57;84.46;100091.78;1711269;84;20085;-70
2022/02/15 01:56:18;;;;;;;;;;;;;;;-3.60;84.76;100095.40;1711413;84;20476;-70
2022/02/15 01:58:48;;;;;;;;;;;;;;;-3.61;84.93;100096.43;1710942;84;20117;-70
2022/02/15 02:01:20;;;;;;;;;;;;;;;-3.61;85.23;100097.26;1725605;83;20644;-68
2022/02/15 02:03:49;;;;;;;;;;;;;;;-3.61;85.25;100095.91;1729337;83;20424;-68
2022/02/15 02:06:23;;;;;;;;;;;;;;;-3.60;85.45;100098.91;1730689;83;20116;-68
2022/02/15 02:08:49;;;;;;;;;;;;;;;-3.60;85.45;100099.42;1729960;83;20473;-71
2022/02/15 02:11:26;;;;;;;;;;;;;;;-3.60;85.41;100096.22;1724958;83;20113;-69
2022/02/15 02:13:53;;;;;;;;;;;;;;;-3.61;85.52;100093.75;1726115;83;21121;-69
2022/02/15 02:16:34;;;;;;;;;;;;;;;-3.60;85.60;100096.22;1700817;83;20092;-69
2022/02/15 02:19:08;;;;;;;;;;;;;;;-3.60;85.52;100098.08;1729339;83;20427;-69
2022/02/15 02:21:41;;;;;;;;;;;;;;;-3.62;85.67;100100.97;1731079;83;20101;-69
2022/02/15 02:24:14;;;;;;;;;;;;;;;-3.62;85.67;100095.61;1697615;83;20135;-69
2022/02/15 02:26:43;;;;;;;;;;;;;;;-3.63;85.67;100105.21;1730500;83;21092;-71
2022/02/15 02:29:14;;;;;;;;;;;;;;;-3.65;85.90;100098.70;1729850;83;20096;-69
2022/02/15 02:31:45;;;;;;;;;;;;;;;-3.68;86.03;100101.30;1730784;83;20305;-67
2022/02/15 02:34:14;;;;;;;;;;;;;;;-3.70;86.07;100097.17;1730710;81;20119;-67
2022/02/15 02:36:47;;;;;;;;;;;;;;;-3.71;86.10;100097.69;1730749;83;20117;-68
2022/02/15 02:39:22;;;;;;;;;;;;;;;-3.74;86.24;100098.11;1730275;83;20144;-68
2022/02/15 02:41:49;;;;;;;;;;;;;;;-3.76;86.32;100098.83;1724872;83;20084;-68
2022/02/15 02:44:21;;;;;;;;;;;;;;;-3.79;86.30;100092.55;1701676;83;20125;-67
2022/02/15 02:46:52;;;;;;;;;;;;;;;-3.82;86.42;100094.30;1701357;83;20084;-69
2022/02/15 02:49:24;;;;;;;;;;;;;;;-3.85;86.54;100091.20;1730098;83;20094;-70
2022/02/15 02:51:50;;;;;;;;;;;;;;;-3.89;86.63;100090.80;1732246;83;21054;-66
2022/02/15 02:54:23;;;;;;;;;;;;;;;-3.90;86.71;100101.22;1731243;83;20103;-67
2022/02/15 02:57:01;;;;;;;;;;;;;;;-3.92;86.90;100097.09;1730908;83;20115;-68
2022/02/15 02:59:24;;;;;;;;;;;;;;;-3.94;87.04;100096.48;1729781;83;20085;-70
2022/02/15 03:01:59;;;;;;;;;;;;;;;-3.96;87.33;100097.20;1726901;83;20144;-69
2022/02/15 03:04:25;;;;;;;;;;;;;;;-3.95;87.55;100098.85;1720186;83;20384;-69
2022/02/15 03:06:56;;;;;;;;;;;;;;;-3.96;87.66;100103.91;1728664;83;20412;-69
2022/02/15 03:09:24;;;;;;;;;;;;;;;-3.95;87.74;100098.34;1728016;83;20133;-67
2022/02/15 03:11:54;;;;;;;;;;;;;;;-3.94;87.69;100103.19;1729344;83;20420;-68
2022/02/15 03:14:25;;;;;;;;;;;;;;;-3.92;87.79;100109.17;1728848;83;20436;-68
2022/02/15 03:16:54;;;;;;;;;;;;;;;-3.91;87.85;100102.25;1720380;83;20152;-69
2022/02/15 03:19:29;;;;;;;;;;;;;;;-3.90;87.70;100095.03;1728582;83;20104;-71
2022/02/15 03:21:54;;;;;;;;;;;;;;;-3.89;87.82;100098.02;1727232;83;20109;-69
2022/02/15 03:24:27;;;;;;;;;;;;;;;-3.88;87.79;100094.31;1718406;82;20155;-69
2022/02/15 03:26:58;;;;;;;;;;;;;;;-3.86;87.76;100094.41;1705338;84;20179;-69
2022/02/15 03:29:24;;;;;;;;;;;;;;;-3.84;87.72;100100.91;1704818;84;22623;-68
2022/02/15 03:31:58;;;;;;;;;;;;;;;-3.85;87.71;100096.06;1705330;84;20600;-70
2022/02/15 03:34:30;;;;;;;;;;;;;;;-3.85;87.60;100094.72;1704728;84;20466;-68
2022/02/15 03:36:55;;;;;;;;;;;;;;;-3.85;87.58;100089.87;1703905;84;20242;-68
2022/02/15 03:39:24;;;;;;;;;;;;;;;-3.87;87.50;100086.05;1705128;84;20142;-68
2022/02/15 03:44:44;;;;;;;;;;;;;;;-3.91;87.70;100082.66;1676619;84;20114;-70
2022/02/15 03:47:18;;;;;;;;;;;;;;;-3.92;87.98;100083.69;1676120;84;20466;-69
2022/02/15 03:49:46;;;;;;;;;;;;;;;-3.93;88.03;100085.55;1708019;84;20436;-68
2022/02/15 03:52:15;;;;;;;;;;;;;;;-3.92;88.31;100086.37;1706315;84;20157;-68
2022/02/15 03:54:45;;;;;;;;;;;;;;;-3.90;88.31;100089.67;1693567;84;21089;-69
2022/02/15 03:57:18;;;;;;;;;;;;;;;-3.89;88.22;100083.27;1652553;85;20164;-68
2022/02/15 03:59:44;;;;;;;;;;;;;;;-3.90;88.49;100081.63;1683786;84;20159;-68
2022/02/15 04:02:15;;;;;;;;;;;;;;;-3.89;88.56;100084.61;1679680;85;20457;-68
2022/02/15 04:04:41;;;;;;;;;;;;;;;-3.90;88.43;100084.30;1683212;84;20101;-70
2022/02/15 04:07:10;;;;;;;;;;;;;;;-3.91;88.49;100088.84;1692511;84;21933;-68
2022/02/15 04:09:42;;;;;;;;;;;;;;;-3.90;88.39;100084.30;1678885;85;20104;-71
2022/02/15 04:12:12;;;;;;;;;;;;;;;-3.92;88.45;100077.80;1679395;85;20077;-68
2022/02/15 04:14:44;;;;;;;;;;;;;;;-3.94;88.55;100080.39;1703667;84;20158;-70
2022/02/15 04:17:11;;;;;;;;;;;;;;;-3.95;88.75;100082.77;1709169;84;20146;-69
2022/02/15 04:19:44;;;;;;;;;;;;;;;-3.96;88.81;100077.09;1709134;84;21223;-69
2022/02/15 04:22:13;;;;;;;;;;;;;;;-3.98;89.06;100075.95;1707918;83;20340;-69
2022/02/15 04:24:42;;;;;;;;;;;;;;;-3.97;89.54;100075.44;1728069;81;20145;-71
2022/02/15 04:27:09;;;;;;;;;;;;;;;-3.97;89.49;100078.95;1726010;81;20182;-72
2022/02/15 04:29:38;;;;;;;;;;;;;;;-3.98;89.49;100082.66;1733234;81;20146;-72
2022/02/15 04:32:14;;;;;;;;;;;;;;;-3.99;89.54;100075.13;1749734;81;21997;-71
2022/02/15 04:34:41;;;;;;;;;;;;;;;-4.00;89.66;100083.38;1752011;81;20098;-71
2022/02/15 04:37:09;;;;;;;;;;;;;;;-4.02;89.68;100085.45;1755478;81;20163;-70
2022/02/15 04:39:36;;;;;;;;;;;;;;;-4.04;89.86;100086.17;1748230;81;20450;-70
2022/02/15 04:42:15;;;;;;;;;;;;;;;-4.06;90.29;100085.07;1733134;81;20091;-69
2022/02/15 04:44:41;;;;;;;;;;;;;;;-4.06;90.64;100087.75;1713422;81;21153;-70
2022/02/15 04:47:09;;;;;;;;;;;;;;;-4.05;90.74;100084.04;1756609;81;20146;-69
2022/02/15 04:49:42;;;;;;;;;;;;;;;-4.05;90.75;100086.72;1758235;81;20461;-70
2022/02/15 04:52:10;;;;;;;;;;;;;;;-4.07;90.83;100090.64;1757944;81;20178;-69
2022/02/15 04:54:41;;;;;;;;;;;;;;;-4.09;91.06;100085.48;1735577;81;20119;-69
2022/02/15 04:57:13;;;;;;;;;;;;;;;-4.09;91.28;100094.05;1735022;81;20678;-70
2022/02/15 04:59:43;;;;;;;;;;;;;;;-4.10;91.48;100089.72;1748853;81;20216;-72
2022/02/15 05:02:13;;;;;;;;;;;;;;;-4.10;91.77;100097.77;1738442;82;20462;-70
2022/02/15 05:04:53;;;;;;;;;;;;;;;-4.10;91.61;100087.03;1740164;82;20089;-71
2022/02/15 05:07:23;;;;;;;;;;;;;;;-4.12;91.65;100091.27;1714753;82;20155;-75
2022/02/15 05:09:51;;;;;;;;;;;;;;;-4.13;91.70;100099.52;1741340;82;21155;-72
2022/02/15 05:12:23;;;;;;;;;;;;;;;-4.15;91.76;100100.23;1741645;82;20096;-69
2022/02/15 05:14:55;;;;;;;;;;;;;;;-4.17;91.77;100104.98;1741813;82;20168;-71
2022/02/15 05:17:27;;;;;;;;;;;;;;;-4.18;91.97;100111.37;1715668;82;20281;-72
2022/02/15 05:19:58;;;;;;;;;;;;;;;-4.18;92.01;100120.76;1738427;82;20407;-69
2022/02/15 05:22:27;;;;;;;;;;;;;;;-4.19;91.97;100117.25;1741698;82;21993;-70
2022/02/15 05:24:55;;;;;;;;;;;;;;;-4.19;92.01;100121.78;1741274;82;20148;-67
2022/02/15 05:27:26;;;;;;;;;;;;;;;-4.19;92.11;100114.56;1741193;82;20388;-77
2022/02/15 05:30:16;;;;;;;;;;;;;;;-4.17;92.16;100121.89;1737115;82;20120;-68
2022/02/15 05:32:34;;;;;;;;;;;;;;;-4.18;92.11;100117.56;1736487;82;20459;-67
2022/02/15 05:35:08;;;;;;;;;;;;;;;-4.16;92.07;100119.52;1714167;82;20585;-73
2022/02/15 05:37:36;;;;;;;;;;;;;;;-4.15;92.12;100117.15;1739810;82;20100;-80
2022/02/15 05:40:06;;;;;;;;;;;;;;;-4.15;92.21;100121.69;1714257;82;20088;-85
2022/02/15 05:42:52;;;;;;;;;;;;;;;-4.16;92.15;100120.86;1740320;82;20076;-81
2022/02/15 05:45:23;;;;;;;;;;;;;;;-4.14;92.30;100121.99;1741351;82;20204;-83
2022/02/15 05:48:11;;;;;;;;;;;;;;;-4.11;92.38;100123.75;1697470;84;20122;-90
2022/02/15 05:50:49;;;;;;;;;;;;;;;-4.06;92.32;100123.13;1708013;82;20099;-73
2022/02/15 05:53:22;;;;;;;;;;;;;;;-4.02;92.26;100121.14;1695724;84;20143;-73
2022/02/15 05:55:52;;;;;;;;;;;;;;;-3.94;92.12;100125.98;1684316;84;20467;-73
2022/02/15 05:58:22;;;;;;;;;;;;;;;-3.90;92.08;100124.02;1711021;84;20119;-73
2022/02/15 06:00:54;;;;;;;;;;;;;;;-3.84;91.91;100132.58;1672548;84;21175;-79
2022/02/15 06:06:06;;;;;;;;;;;;;;;-3.71;91.44;100128.55;1702440;84;20132;-74
2022/02/15 06:08:43;;;;;;;;;;;;;;;-3.62;90.90;100135.03;1711878;82;20140;-76
2022/02/15 06:11:09;;;;;;;;;;;;;;;-3.53;90.25;100133.27;1685173;84;20155;-73
2022/02/15 06:13:43;;;;;;;;;;;;;;;-3.42;89.57;100128.56;1711776;83;21954;-73
2022/02/15 06:16:14;;;;;;;;;;;;;;;-3.33;89.34;100132.67;1663531;83;20122;-75
2022/02/15 06:18:55;;;;;;;;;;;;;;;-3.23;88.78;100128.72;1658264;86;20130;-76
2022/02/15 06:21:21;;;;;;;;;;;;;;;-3.13;88.45;100123.73;1650390;85;20410;-76
2022/02/15 06:23:50;;;;;;;;;;;;;;;-3.01;86.82;100130.09;1665186;83;20130;-74
2022/02/15 06:26:23;;;;;;;;;;;;;;;-2.89;86.53;100122.19;1658285;85;21189;-73
2022/02/15 06:29:11;;;;;;;;;;;;;;;-2.78;85.75;100114.76;1674685;84;20123;-79
2022/02/15 06:31:41;;;;;;;;;;;;;;;-2.64;85.00;100115.52;1691746;85;20104;-72
2022/02/15 06:34:11;;;;;;;;;;;;;;;-2.54;83.65;100106.45;1687973;85;20104;-85
2022/02/15 06:36:43;;;;;;;;;;;;;;;-2.43;82.93;100104.42;1718400;83;20105;-69
2022/02/15 06:39:12;;;;;;;;;;;;;;;-2.32;82.43;100104.24;1696106;84;21102;-69
2022/02/15 06:41:46;;;;;;;;;;;;;;;-2.22;81.96;100104.55;1695638;84;20411;-77
2022/02/15 06:44:16;;;;;;;;;;;;;;;-2.12;81.93;100102.20;1695715;84;20219;-71
2022/02/15 06:46:46;;;;;;;;;;;;;;;-2.01;81.13;100099.61;1704080;83;20083;-86
2022/02/15 06:49:14;;;;;;;;;;;;;;;-1.90;80.28;100094.56;1713852;83;20101;-71
2022/02/15 06:51:42;;;;;;;;;;;;;;;-1.69;79.83;100100.33;1758760;80;20731;-72
2022/02/15 06:54:17;;;;;;;;;;;;;;;-1.21;79.06;100098.27;1758361;79;20096;-71
2022/02/15 06:56:45;;;;;;;;;;;;;;;-0.78;75.13;100096.76;1759065;80;20116;-75
2022/02/15 06:59:14;;;;;;;;;;;;;;;-0.67;74.66;100096.52;1787946;80;20107;-68
2022/02/15 07:01:45;;;;;;;;;;;;;;;-0.59;74.48;100096.71;1786838;80;20084;-68
2022/02/15 07:04:25;;;;;;;;;;;;;;;-0.28;72.84;100099.65;1735519;80;20432;-68
2022/02/15 07:06:51;;;;;;;;;;;;;;;0.21;71.24;100096.52;1787461;80;20084;-69
2022/02/15 07:09:25;;;;;;;;;;;;;;;0.64;69.98;100098.82;1759493;80;20455;-68
2022/02/15 07:12:08;;;;;;;;;;;;;;;1.13;68.55;100101.18;1788346;80;20767;-69
2022/02/15 07:14:41;;;;;;;;;;;;;;;1.52;64.78;100094.05;1758357;80;37763;-76
2022/02/15 07:17:16;;;;;;;;;;;;;;;1.72;66.08;100100.36;1788195;80;21497;-73
2022/02/15 07:19:41;;;;;;;;;;;;;;;2.12;62.76;100098.84;1786560;80;20116;-67
2022/02/15 07:22:29;;;;;;;;;;;;;;;2.38;61.40;100101.37;1759270;80;20112;-74
2022/02/15 07:25:09;;;;;;;;;;;;;;;2.40;59.83;100096.00;1777869;80;20096;-71
2022/02/15 07:27:47;;;;;;;;;;;;;;;2.37;60.00;100097.03;1791023;80;20119;-75
2022/02/15 07:30:15;;;;;;;;;;;;;;;2.36;59.47;100096.21;1784838;80;21150;-69
2022/02/15 07:32:50;;;;;;;;;;;;;;;2.42;59.09;100095.22;1789691;80;20088;-69
2022/02/15 07:35:20;;;;;;;;;;;;;;;2.44;58.96;100098.50;1765068;80;20088;-67
2022/02/15 07:37:48;;;;;;;;;;;;;;;2.51;58.97;100095.62;1790946;80;20458;-70
2022/02/15 07:40:19;;;;;;;;;;;;;;;2.54;59.28;100093.23;1790787;80;20113;-68
2022/02/15 07:42:49;;;;;;;;;;;;;;;2.64;58.79;100092.02;1790700;79;21867;-67
2022/02/15 07:45:20;;;;;;;;;;;;;;;2.63;58.41;100083.59;1789304;80;20098;-67
2022/02/15 07:47:51;;;;;;;;;;;;;;;2.59;59.48;100083.81;1785651;80;20090;-67
2022/02/15 07:50:22;;;;;;;;;;;;;;;2.77;60.10;100084.05;1789701;79;20114;-71
2022/02/15 07:52:50;;;;;;;;;;;;;;;2.95;59.16;100074.76;1791038;80;20078;-73
2022/02/15 07:55:17;;;;;;;;;;;;;;;3.09;59.50;100067.87;1791434;80;22108;-76
2022/02/15 07:57:44;;;;;;;;;;;;;;;3.39;58.80;100069.29;1791243;80;20122;-75
2022/02/15 08:00:18;;;;;;;;;;;;;;;3.56;56.98;100063.19;1791146;80;20078;-73
2022/02/15 08:02:40;;;;;;;;;;;;;;;3.51;56.71;100063.96;1790281;80;20146;-80
2022/02/15 08:05:07;;;;;;;;;;;;;;;3.47;56.89;100064.19;1791157;80;20443;-86
2022/02/15 08:07:33;;;;;;;;;;;;;;;3.49;57.15;100063.39;1791278;80;21084;-78
2022/02/15 08:10:02;;;;;;;;;;;;;;;3.58;56.99;100067.83;1792003;80;20112;-78
2022/02/15 08:12:28;;;;;;;;;;;;;;;3.71;56.41;100059.27;1791738;80;20139;-80
2022/02/15 08:14:56;;;;;;;;;;;;;;;3.76;56.43;100062.02;1791868;80;20179;-84
2022/02/15 08:17:23;;;;;;;;;;;;;;;3.87;55.89;100057.50;1793195;80;20139;-79
2022/02/15 08:19:51;;;;;;;;;;;;;;;3.93;56.09;100062.72;1794054;79;21091;-84
2022/02/15 08:22:23;;;;;;;;;;;;;;;3.93;54.95;100065.97;1793793;79;20082;-82
2022/02/15 08:24:55;;;;;;;;;;;;;;;3.93;55.37;100067.33;1778077;80;20114;-72
2022/02/15 08:27:28;;;;;;;;;;;;;;;4.07;55.45;100070.39;1793524;80;20070;-72
2022/02/15 08:29:56;;;;;;;;;;;;;;;4.29;55.18;100077.91;1800939;79;20110;-70
2022/02/15 08:32:30;;;;;;;;;;;;;;;4.53;55.64;100081.05;1793167;79;21151;-77
2022/02/15 08:34:56;;;;;;;;;;;;;;;4.79;53.93;100081.98;1792461;79;20082;-77
2022/02/15 08:37:22;;;;;;;;;;;;;;;4.87;53.51;100068.69;1793462;79;20109;-88
2022/02/15 08:39:52;;;;;;;;;;;;;;;4.82;52.60;100068.67;1793408;79;20110;-84
2022/02/15 08:42:24;;;;;;;;;;;;;;;4.82;53.48;100061.87;1793564;79;20134;-88
2022/02/15 08:44:56;;;;;;;;;;;;;;;4.96;53.19;100063.02;1794537;80;21150;-81
2022/02/15 08:47:24;;;;;;;;;;;;;;;5.06;52.51;100062.24;1792832;80;20476;-85
2022/02/15 08:49:54;;;;;;;;;;;;;;;5.06;52.49;100055.98;1789955;80;20110;-86
2022/02/15 08:52:29;;;;;;;;;;;;;;;5.09;52.40;100058.17;1760986;80;20086;-82
2022/02/15 08:55:02;;;;;;;;;;;;;;;4.98;52.32;100049.97;1787679;80;20429;-72
2022/02/15 08:57:36;;;;;;;;;;;;;;;4.97;52.15;100058.39;1790995;80;21174;-80
2022/02/15 09:00:06;;;;;;;;;;;;;;;5.03;52.69;100053.80;1762425;80;20463;-65
2022/02/15 09:02:35;;;;;;;;;;;;;;;5.36;52.64;100049.78;1791043;80;20441;-69
2022/02/15 09:05:05;;;;;;;;;;;;;;;5.72;51.44;100041.13;1781246;80;20475;-70
2022/02/15 09:07:31;;;;;;;;;;;;;;;5.87;51.37;100048.73;1791023;80;20433;-77
2022/02/15 09:09:59;;;;;;;;;;;;;;;6.02;50.06;100049.84;1790955;80;21179;-74
2022/02/15 09:12:26;;;;;;;;;;;;;;;6.05;50.09;100046.58;1790691;79;20077;-76
2022/02/15 09:14:52;;;;;;;;;;;;;;;6.05;50.01;100048.76;1790928;80;20174;-78
2022/02/15 09:17:21;;;;;;;;;;;;;;;6.12;49.53;100052.03;1790980;80;20476;-77
2022/02/15 09:19:48;;;;;;;;;;;;;;;6.11;49.07;100044.13;1789504;80;20094;-78
2022/02/15 09:22:15;;;;;;;;;;;;;;;6.14;50.11;100047.66;1791247;80;21111;-75
2022/02/15 09:24:44;;;;;;;;;;;;;;;6.33;49.68;100036.46;1789922;80;20118;-76
2022/02/15 09:27:11;;;;;;;;;;;;;;;6.53;49.03;100035.02;1788087;79;20197;-74
2022/02/15 09:29:37;;;;;;;;;;;;;;;6.50;48.13;100032.84;1790934;80;20156;-75
2022/02/15 09:32:07;;;;;;;;;;;;;;;6.33;49.29;100029.64;1791279;80;20496;-69
2022/02/15 09:34:41;;;;;;;;;;;;;;;6.45;49.30;100034.77;1790666;80;21609;-70
2022/02/15 09:37:12;;;;;;;;;;;;;;;6.47;50.58;100032.58;1760546;80;20118;-69
2022/02/15 09:39:38;;;;;;;;;;;;;;;6.39;48.68;100034.51;1789797;80;20416;-72
2022/02/15 09:42:06;;;;;;;;;;;;;;;6.42;48.79;100033.41;1790169;80;20158;-73
2022/02/15 09:44:38;;;;;;;;;;;;;;;6.59;47.92;100033.91;1763692;80;20190;-78
2022/02/15 09:47:05;;;;;;;;;;;;;;;6.71;47.21;100031.42;1786932;79;21191;-78
2022/02/15 09:49:51;;;;;;;;;;;;;;;6.73;47.19;100025.14;1753835;80;20095;-74
2022/02/15 09:52:23;;;;;;;;;;;;;;;6.70;46.06;100018.88;1790344;80;20162;-75
2022/02/15 09:54:55;;;;;;;;;;;;;;;6.58;46.77;100011.82;1760390;80;20085;-77
2022/02/15 09:57:23;;;;;;;;;;;;;;;6.59;46.97;100009.36;1786337;80;20088;-73
2022/02/15 09:59:57;;;;;;;;;;;;;;;6.82;47.61;100005.19;1766756;80;20114;-81
2022/02/15 10:02:34;;;;;;;;;;;;;;;7.05;46.39;100008.33;1784996;79;20128;-81
2022/02/15 10:04:59;;;;;;;;;;;;;;;6.98;45.90;100000.44;1755118;80;20106;-80
2022/02/15 10:07:26;;;;;;;;;;;;;;;7.03;46.33;99994.95;1787176;80;20466;-77
2022/02/15 10:09:55;;;;;;;;;;;;;;;7.18;46.02;99996.23;1788342;79;20128;-79
2022/02/15 10:12:24;;;;;;;;;;;;;;;7.04;45.51;99992.49;1784104;79;21724;-78
2022/02/15 10:14:58;;;;;;;;;;;;;;;6.85;46.02;99985.52;1760014;80;20128;-84
2022/02/15 10:17:23;;;;;;;;;;;;;;;6.62;46.21;99989.71;1787355;80;20143;-79
2022/02/15 10:19:57;;;;;;;;;;;;;;;6.69;47.05;99980.41;1788533;80;20124;-75
2022/02/15 10:22:22;;;;;;;;;;;;;;;6.94;47.05;99978.35;1786260;80;20430;-79
2022/02/15 10:24:58;;;;;;;;;;;;;;;7.18;46.74;99962.66;1787473;80;20794;-79
2022/02/15 10:27:30;;;;;;;;;;;;;;;7.44;45.81;99965.48;1783124;80;20144;-81
2022/02/15 10:29:57;;;;;;;;;;;;;;;7.31;45.18;99968.85;1780128;80;20138;-79
2022/02/15 10:32:25;;;;;;;;;;;;;;;7.13;46.91;99959.95;1756894;80;20096;-76
2022/02/15 10:34:57;;;;;;;;;;;;;;;7.27;46.44;99963.69;1756176;80;20120;-76
2022/02/15 10:37:30;;;;;;;;;;;;;;;7.48;47.32;99960.27;1727750;80;20115;-74
2022/02/15 10:40:04;;;;;;;;;;;;;;;7.84;45.60;99962.94;1780171;80;20142;-75
2022/02/15 10:42:36;;;;;;;;;;;;;;;7.70;45.34;99961.97;1776014;80;20154;-76
2022/02/15 10:45:02;;;;;;;;;;;;;;;7.60;45.62;99968.88;1772012;80;20471;-78
2022/02/15 10:47:33;;;;;;;;;;;;;;;7.68;45.96;99961.44;1755196;80;20453;-85
2022/02/15 10:50:07;;;;;;;;;;;;;;;7.77;45.60;99958.35;1779448;80;21559;-78
2022/02/15 10:52:30;;;;;;;;;;;;;;;7.79;45.00;99957.52;1781525;80;20194;-84
2022/02/15 10:54:58;;;;;;;;;;;;;;;7.85;44.96;99952.27;1782117;80;20135;-82
2022/02/15 10:57:25;;;;;;;;;;;;;;;8.03;45.26;99952.65;1782115;80;20598;-80
2022/02/15 10:59:54;;;;;;;;;;;;;;;8.21;43.97;99938.20;1782124;80;20151;-90
2022/02/15 11:02:27;;;;;;;;;;;;;;;8.20;43.74;99942.86;1759745;80;21873;-75
2022/02/15 11:05:02;;;;;;;;;;;;;;;7.97;43.74;99942.31;1794755;80;20114;-76
2022/02/15 11:07:33;;;;;;;;;;;;;;;7.81;44.81;99944.38;1769452;80;20410;-78
2022/02/15 11:10:19;;;;;;;;;;;;;;;7.89;45.20;99945.13;1783173;80;20633;-78
2022/02/15 11:13:03;;;;;;;;;;;;;;;8.02;44.65;99942.81;1782497;80;20646;-70
2022/02/15 11:15:33;;;;;;;;;;;;;;;8.02;43.33;99934.61;1781341;80;21941;-72
2022/02/15 11:18:03;;;;;;;;;;;;;;;7.83;44.26;99938.07;1782016;80;20114;-72
2022/02/15 11:20:51;;;;;;;;;;;;;;;7.69;44.77;99930.83;1770457;80;20141;-72
2022/02/15 11:23:24;;;;;;;;;;;;;;;7.91;45.21;99926.52;1783130;80;20136;-69
2022/02/15 11:26:03;;;;;;;;;;;;;;;8.24;44.79;99930.23;1782602;80;20110;-69
2022/02/15 11:28:33;;;;;;;;;;;;;;;8.14;44.02;99932.27;1752320;80;21194;-68
2022/02/15 11:31:01;;;;;;;;;;;;;;;7.89;44.49;99926.53;1782788;80;20453;-71
2022/02/15 11:33:30;;;;;;;;;;;;;;;7.74;44.46;99923.95;1782451;80;20126;-71
2022/02/15 11:36:07;;;;;;;;;;;;;;;7.74;45.19;99926.13;1779204;80;20158;-70
2022/02/15 11:38:43;;;;;;;;;;;;;;;7.80;44.30;99925.53;1761366;80;20437;-72
2022/02/15 11:41:15;;;;;;;;;;;;;;;7.69;44.45;99917.98;1758453;80;21635;-71
2022/02/15 11:43:47;;;;;;;;;;;;;;;7.63;45.19;99913.66;1778780;80;20429;-69
2022/02/15 11:46:14;;;;;;;;;;;;;;;7.80;45.13;99903.11;1777581;80;20118;-72
2022/02/15 11:48:47;;;;;;;;;;;;;;;7.91;45.22;99907.38;1791302;80;20083;-72
2022/02/15 11:51:18;;;;;;;;;;;;;;;7.90;44.56;99912.58;1788939;79;20149;-76
2022/02/15 11:53:48;;;;;;;;;;;;;;;8.01;44.82;99907.01;1783188;80;21231;-76
2022/02/15 11:56:15;;;;;;;;;;;;;;;8.07;45.29;99912.13;1787027;80;20087;-76
2022/02/15 11:58:44;;;;;;;;;;;;;;;8.45;45.17;99910.88;1783819;80;20082;-77
2022/02/15 12:01:29;;;;;;;;;;;;;;;8.90;44.68;99911.62;1783015;79;20449;-71
2022/02/15 12:04:00;;;;;;;;;;;;;;;9.32;43.16;99900.83;1752754;82;20108;-77
2022/02/15 12:06:39;;;;;;;;;;;;;;;9.38;42.60;99901.01;1760285;80;21139;-75
2022/02/15 12:09:10;;;;;;;;;;;;;;;9.39;41.89;99897.16;1757620;80;20188;-76
2022/02/15 12:11:42;;;;;;;;;;;;;;;9.22;41.83;99903.20;1782055;80;20160;-76
2022/02/15 12:14:17;;;;;;;;;;;;;;;8.85;41.67;99901.29;1781780;80;20140;-74
2022/02/15 12:16:51;;;;;;;;;;;;;;;8.34;42.78;99898.44;1753372;80;20183;-74
2022/02/15 12:19:28;;;;;;;;;;;;;;;7.90;44.12;99900.83;1782651;80;21145;-74
2022/02/15 12:21:56;;;;;;;;;;;;;;;7.88;44.81;99898.94;1779367;80;20167;-75
2022/02/15 12:24:24;;;;;;;;;;;;;;;8.05;45.22;99894.39;1760071;80;20146;-76
2022/02/15 12:26:57;;;;;;;;;;;;;;;8.27;44.00;99896.83;1784877;80;20220;-77
2022/02/15 12:29:24;;;;;;;;;;;;;;;8.28;43.93;99891.63;1791703;79;20124;-76
2022/02/15 12:31:55;;;;;;;;;;;;;;;8.38;44.90;99892.64;1786174;80;21142;-76
2022/02/15 12:34:26;;;;;;;;;;;;;;;8.67;44.13;99885.11;1742146;80;20603;-77
2022/02/15 12:36:57;;;;;;;;;;;;;;;8.82;43.92;99882.72;1759345;80;20170;-76
2022/02/15 12:39:33;;;;;;;;;;;;;;;8.98;43.15;99878.65;1789685;79;20117;-77
2022/02/15 12:42:18;;;;;;;;;;;;;;;8.96;42.65;99881.42;1787709;80;20183;-77
2022/02/15 12:44:58;;;;;;;;;;;;;;;8.76;43.64;99878.42;1783763;80;21848;-78
2022/02/15 12:47:30;;;;;;;;;;;;;;;8.81;43.92;99879.16;1784153;79;20108;-76
2022/02/15 12:50:00;;;;;;;;;;;;;;;8.81;43.42;99872.33;1790252;80;20137;-75
2022/02/15 12:52:30;;;;;;;;;;;;;;;8.67;43.60;99876.90;1788725;80;20070;-76
2022/02/15 12:55:03;;;;;;;;;;;;;;;8.67;43.60;99871.98;1789049;80;20451;-76
2022/02/15 12:57:31;;;;;;;;;;;;;;;8.65;43.97;99872.31;1777180;80;20237;-78
2022/02/15 13:00:00;;;;;;;;;;;;;;;8.73;43.96;99870.80;1794087;78;20070;-76
2022/02/15 13:02:27;;;;;;;;;;;;;;;8.87;43.68;99875.80;1805927;79;20130;-82
2022/02/15 13:04:58;;;;;;;;;;;;;;;8.87;44.02;99882.09;1796738;80;20415;-79
2022/02/15 13:07:24;;;;;;;;;;;;;;;8.98;43.96;99877.84;1780708;80;20134;-85